Time;durP1;ratioP1;P1;durP2;ratioP2;P2;SDS_P1;SDS_P2;PMS_P1;PMS_P2;Temp;Humidity;BMP_temperature;BMP_pressure;BME280_temperature;BME280_humidity;BME280_pressure;Samples;Min_cycle;Max_cycle;Signal;HPM_P1;HPM_P2
2021/11/16 00:02:07;;;;;;;72.97;29.17;;;4.20;99.90;;;;;;5088902;29;20202;-72
2021/11/16 00:04:40;;;;;;;67.07;29.97;;;4.20;99.90;;;;;;5073259;29;20560;-72
2021/11/16 00:07:12;;;;;;;75.00;31.07;;;4.20;99.90;;;;;;5089171;29;20213;-68
2021/11/16 00:09:46;;;;;;;74.10;30.23;;;4.20;99.90;;;;;;5057227;29;20281;-69
2021/11/16 00:12:21;;;;;;;74.50;29.93;;;4.20;99.90;;;;;;5073202;29;20233;-72
2021/11/16 00:14:53;;;;;;;70.60;30.37;;;4.20;99.90;;;;;;5089056;29;20198;-71
2021/11/16 00:17:28;;;;;;;75.93;30.90;;;4.20;99.90;;;;;;5071911;29;20542;-69
2021/11/16 00:20:01;;;;;;;69.17;30.30;;;4.20;99.90;;;;;;5071477;29;20631;-67
2021/11/16 00:22:36;;;;;;;75.93;29.53;;;4.20;99.90;;;;;;5088528;29;20615;-67
2021/11/16 00:25:20;;;;;;;73.87;30.97;;;4.20;99.90;;;;;;5071708;29;20221;-68
2021/11/16 00:27:52;;;;;;;74.57;30.47;;;4.20;99.90;;;;;;5071985;29;20537;-68
2021/11/16 00:30:26;;;;;;;72.37;30.60;;;4.20;99.90;;;;;;5087170;29;20552;-69
2021/11/16 00:32:58;;;;;;;74.33;30.47;;;4.20;99.90;;;;;;5072142;29;20550;-69
2021/11/16 00:35:37;;;;;;;79.13;32.00;;;4.20;99.90;;;;;;5088222;29;20309;-71
2021/11/16 00:38:12;;;;;;;70.53;29.93;;;4.20;99.90;;;;;;5088312;29;20199;-68
2021/11/16 00:40:48;;;;;;;76.83;32.03;;;4.20;99.90;;;;;;5088204;29;20224;-67
2021/11/16 00:43:20;;;;;;;69.00;29.63;;;4.20;99.90;;;;;;5072080;29;20643;-73
2021/11/16 00:45:52;;;;;;;71.97;31.20;;;4.20;99.90;;;;;;5072215;29;20558;-67
2021/11/16 00:48:25;;;;;;;76.77;30.87;;;4.20;99.90;;;;;;5072463;29;20257;-70
2021/11/16 00:51:00;;;;;;;81.10;32.60;;;4.20;99.90;;;;;;5088370;29;20297;-68
2021/11/16 00:53:35;;;;;;;72.73;30.73;;;4.20;99.90;;;;;;5088505;29;20637;-68
2021/11/16 00:56:09;;;;;;;86.13;31.90;;;4.20;99.90;;;;;;5088281;29;20214;-69
2021/11/16 00:58:41;;;;;;;72.43;32.00;;;4.20;99.90;;;;;;5088004;29;20539;-69
2021/11/16 01:01:13;;;;;;;71.97;30.43;;;4.20;99.90;;;;;;5071282;29;20229;-68
2021/11/16 01:03:46;;;;;;;77.27;31.73;;;4.20;99.90;;;;;;5088609;29;20222;-69
2021/11/16 01:06:19;;;;;;;71.63;30.60;;;4.20;99.90;;;;;;5087826;29;20269;-71
2021/11/16 01:08:53;;;;;;;77.23;31.30;;;4.20;99.90;;;;;;5087819;29;20654;-69
2021/11/16 01:11:26;;;;;;;75.00;30.90;;;4.20;99.90;;;;;;5088097;29;20636;-69
2021/11/16 01:13:59;;;;;;;72.27;30.93;;;4.20;99.90;;;;;;5088467;29;20214;-70
2021/11/16 01:16:31;;;;;;;74.47;28.83;;;4.20;99.90;;;;;;5088044;29;20220;-72
2021/11/16 01:19:09;;;;;;;78.07;31.07;;;4.20;99.90;;;;;;5070929;29;20220;-69
2021/11/16 01:21:41;;;;;;;71.40;28.27;;;4.20;99.90;;;;;;5071196;29;20210;-69
2021/11/16 01:24:16;;;;;;;68.37;29.73;;;4.20;99.90;;;;;;5087805;29;20218;-71
2021/11/16 01:26:49;;;;;;;75.77;29.60;;;4.20;99.90;;;;;;5071171;29;20248;-69
2021/11/16 01:29:23;;;;;;;77.30;31.67;;;4.10;99.90;;;;;;5087782;29;20227;-70
2021/11/16 01:31:57;;;;;;;70.10;29.93;;;4.20;99.90;;;;;;5087522;29;20217;-68
2021/11/16 01:34:32;;;;;;;73.53;29.47;;;4.20;99.90;;;;;;5087565;29;20214;-68
2021/11/16 01:37:06;;;;;;;67.10;28.87;;;4.10;99.90;;;;;;5071396;29;20248;-68
2021/11/16 01:39:38;;;;;;;74.23;30.07;;;4.20;99.90;;;;;;5071526;29;20229;-68
2021/11/16 01:42:10;;;;;;;70.60;29.70;;;4.10;99.90;;;;;;5055321;29;20210;-69
2021/11/16 01:44:42;;;;;;;70.70;29.27;;;4.10;99.90;;;;;;5087614;29;20646;-74
2021/11/16 01:47:15;;;;;;;73.30;30.17;;;4.10;99.90;;;;;;5087255;29;20238;-66
2021/11/16 01:49:47;;;;;;;77.47;31.57;;;4.10;99.90;;;;;;5087339;29;20210;-68
2021/11/16 01:52:21;;;;;;;71.00;29.13;;;4.20;99.90;;;;;;5070976;29;20253;-67
2021/11/16 01:54:54;;;;;;;69.40;28.50;;;4.20;99.90;;;;;;5089317;29;20217;-67
2021/11/16 01:57:26;;;;;;;72.97;29.67;;;4.20;99.90;;;;;;5074167;29;20214;-67
2021/11/16 01:59:58;;;;;;;68.40;27.73;;;4.20;99.90;;;;;;5090929;29;20206;-68
2021/11/16 02:02:33;;;;;;;69.77;28.20;;;4.20;99.90;;;;;;5090650;29;20556;-68
2021/11/16 02:05:07;;;;;;;66.37;28.17;;;4.20;99.90;;;;;;5090686;29;20210;-66
2021/11/16 02:07:47;;;;;;;70.80;28.03;;;4.20;99.90;;;;;;5090491;29;20238;-67
2021/11/16 02:10:21;;;;;;;70.47;29.03;;;4.20;99.90;;;;;;5090857;29;20221;-68
2021/11/16 02:12:55;;;;;;;68.10;27.17;;;4.20;99.90;;;;;;5090709;29;20206;-67
2021/11/16 02:15:28;;;;;;;72.83;29.17;;;4.20;99.90;;;;;;5074290;29;20210;-69
2021/11/16 02:18:00;;;;;;;70.80;27.37;;;4.20;99.90;;;;;;5073762;29;20678;-66
2021/11/16 02:20:32;;;;;;;63.70;26.07;;;4.20;99.90;;;;;;5090758;29;20517;-67
2021/11/16 02:23:07;;;;;;;75.37;29.20;;;4.20;99.90;;;;;;5058203;29;20244;-66
2021/11/16 02:25:39;;;;;;;67.40;28.97;;;4.20;99.90;;;;;;5090748;29;20253;-68
2021/11/16 02:28:14;;;;;;;66.50;28.10;;;4.20;99.90;;;;;;5090481;29;20557;-68
2021/11/16 02:30:48;;;;;;;60.43;28.07;;;4.20;99.90;;;;;;5090509;29;20194;-67
2021/11/16 02:33:21;;;;;;;67.37;29.17;;;4.20;99.90;;;;;;5073437;29;20214;-66
2021/11/16 02:35:53;;;;;;;64.27;27.47;;;4.20;99.90;;;;;;5090518;29;20210;-68
2021/11/16 02:38:25;;;;;;;73.73;30.17;;;4.20;99.90;;;;;;5073740;29;20568;-68
2021/11/16 02:40:57;;;;;;;70.13;28.97;;;4.20;99.90;;;;;;5089614;29;20217;-66
2021/11/16 02:43:34;;;;;;;66.87;27.53;;;4.20;99.90;;;;;;5090191;29;20496;-67
2021/11/16 02:46:06;;;;;;;69.27;27.37;;;4.20;99.90;;;;;;5090317;29;20225;-69
2021/11/16 02:48:41;;;;;;;74.30;29.70;;;4.20;99.90;;;;;;5090150;29;20623;-66
2021/11/16 02:51:13;;;;;;;68.17;29.97;;;4.20;99.90;;;;;;5090186;29;20240;-67
2021/11/16 02:53:45;;;;;;;67.50;27.90;;;4.20;99.90;;;;;;5089895;29;20230;-69
2021/11/16 02:56:19;;;;;;;62.47;27.87;;;4.20;99.90;;;;;;5057691;29;20229;-66
2021/11/16 02:58:51;;;;;;;72.53;29.53;;;4.20;99.90;;;;;;5090125;29;20649;-67
2021/11/16 03:01:24;;;;;;;69.03;29.60;;;4.20;99.90;;;;;;5073972;29;20217;-68
2021/11/16 03:03:58;;;;;;;67.83;29.13;;;4.20;99.90;;;;;;5057724;29;20273;-68
2021/11/16 03:06:31;;;;;;;63.97;27.17;;;4.20;99.90;;;;;;5089357;29;20229;-67
2021/11/16 03:09:03;;;;;;;75.20;29.93;;;4.20;99.90;;;;;;5090048;29;20234;-68
2021/11/16 03:11:35;;;;;;;65.67;28.50;;;4.20;99.90;;;;;;5089214;29;20210;-66
2021/11/16 03:14:07;;;;;;;67.37;29.33;;;4.20;99.90;;;;;;5059464;29;20234;-67
2021/11/16 03:16:40;;;;;;;67.17;28.97;;;4.20;99.90;;;;;;5089381;29;20218;-66
2021/11/16 03:19:12;;;;;;;71.67;29.63;;;4.20;99.90;;;;;;5072577;29;20241;-69
2021/11/16 03:21:54;;;;;;;65.13;29.20;;;4.20;99.90;;;;;;5072753;29;20206;-71
2021/11/16 03:24:32;;;;;;;70.83;27.93;;;4.20;99.90;;;;;;5088955;29;20243;-67
2021/11/16 03:27:10;;;;;;;64.30;29.50;;;4.20;99.90;;;;;;5072723;29;20218;-68
2021/11/16 03:29:45;;;;;;;69.50;27.80;;;4.20;99.90;;;;;;5073174;29;20229;-69
2021/11/16 03:32:19;;;;;;;68.37;29.93;;;4.20;99.90;;;;;;5073182;29;20205;-66
2021/11/16 03:34:51;;;;;;;69.97;28.37;;;4.30;99.90;;;;;;5072825;29;20686;-68
2021/11/16 03:37:25;;;;;;;66.37;29.07;;;4.20;99.90;;;;;;5072574;29;20214;-67
2021/11/16 03:40:00;;;;;;;68.83;28.60;;;4.20;99.90;;;;;;5072507;29;20244;-67
2021/11/16 03:42:35;;;;;;;67.87;28.80;;;4.20;99.90;;;;;;5074001;29;20233;-67
2021/11/16 03:45:08;;;;;;;67.80;28.57;;;4.20;99.90;;;;;;5089493;29;20245;-68
2021/11/16 03:47:41;;;;;;;71.07;28.80;;;4.20;99.90;;;;;;5072265;29;20226;-66
2021/11/16 03:50:20;;;;;;;66.40;27.47;;;4.20;99.90;;;;;;5088415;29;20241;-68
2021/11/16 03:52:56;;;;;;;66.97;29.43;;;4.20;99.90;;;;;;5088549;29;20249;-68
2021/11/16 03:55:31;;;;;;;65.60;28.33;;;4.20;99.90;;;;;;5088947;29;20216;-67
2021/11/16 03:58:04;;;;;;;67.17;28.53;;;4.20;99.90;;;;;;5088708;29;20520;-67
2021/11/16 04:00:41;;;;;;;70.97;28.77;;;4.20;99.90;;;;;;5072096;29;20608;-68
2021/11/16 04:03:14;;;;;;;65.13;27.47;;;4.20;99.90;;;;;;5071884;29;20682;-69
2021/11/16 04:05:46;;;;;;;69.17;29.13;;;4.20;99.90;;;;;;5056291;29;20274;-68
2021/11/16 04:08:18;;;;;;;71.10;29.93;;;4.30;99.90;;;;;;5072088;29;20225;-69
2021/11/16 04:10:51;;;;;;;68.40;29.13;;;4.30;99.90;;;;;;5088520;29;20210;-67
2021/11/16 04:13:23;;;;;;;69.43;28.30;;;4.20;99.90;;;;;;5071655;29;20219;-66
2021/11/16 04:15:55;;;;;;;66.97;28.77;;;4.30;99.90;;;;;;5088170;29;20206;-66
2021/11/16 04:18:28;;;;;;;70.80;29.30;;;4.30;99.90;;;;;;5071479;29;20214;-68
2021/11/16 04:21:00;;;;;;;68.90;28.40;;;4.30;99.90;;;;;;5088307;29;20511;-66
2021/11/16 04:23:33;;;;;;;63.73;28.50;;;4.30;99.90;;;;;;5071430;29;20210;-68
2021/11/16 04:26:07;;;;;;;64.03;28.70;;;4.30;99.90;;;;;;5088259;29;20485;-67
2021/11/16 04:28:41;;;;;;;66.57;29.80;;;4.30;99.90;;;;;;5071952;29;20523;-66
2021/11/16 04:31:13;;;;;;;73.97;31.10;;;4.30;99.90;;;;;;5088109;29;20524;-68
2021/11/16 04:33:45;;;;;;;76.03;30.93;;;4.30;99.90;;;;;;5088646;29;20269;-66
2021/11/16 04:36:22;;;;;;;74.00;30.10;;;4.40;99.90;;;;;;5087812;29;20213;-68
2021/11/16 04:38:54;;;;;;;71.27;27.90;;;4.40;99.90;;;;;;5056154;29;20205;-67
2021/11/16 04:41:27;;;;;;;83.67;32.70;;;4.40;99.90;;;;;;5072079;29;20637;-70
2021/11/16 04:44:01;;;;;;;80.53;32.57;;;4.40;99.90;;;;;;5071697;29;20310;-72
2021/11/16 04:46:35;;;;;;;100.57;36.20;;;4.40;99.90;;;;;;5087570;29;20230;-70
2021/11/16 04:49:13;;;;;;;95.20;36.00;;;4.40;99.90;;;;;;5087564;29;20213;-72
2021/11/16 05:05:19;;;;;;;77.87;30.87;;;4.40;99.90;;;;;;5087883;29;20199;-70
2021/11/16 05:08:01;;;;;;;80.50;33.57;;;4.40;99.90;;;;;;5087960;29;20222;-69
2021/11/16 05:10:35;;;;;;;80.47;32.50;;;4.50;99.90;;;;;;5087582;29;20662;-73
2021/11/16 05:13:07;;;;;;;83.77;34.23;;;4.40;99.90;;;;;;5088067;29;20519;-70
2021/11/16 05:15:40;;;;;;;82.33;33.73;;;4.40;99.90;;;;;;5087090;29;20222;-69
2021/11/16 05:18:12;;;;;;;81.53;34.10;;;4.50;99.90;;;;;;5071375;29;20199;-72
2021/11/16 05:20:44;;;;;;;80.23;33.57;;;4.50;99.90;;;;;;5071091;29;20241;-70
2021/11/16 05:23:19;;;;;;;84.80;32.97;;;4.50;99.90;;;;;;5071325;29;20210;-71
2021/11/16 05:25:52;;;;;;;83.00;34.53;;;4.50;99.90;;;;;;5087333;29;20323;-71
2021/11/16 05:28:24;;;;;;;87.10;34.90;;;4.50;99.90;;;;;;5087829;29;20221;-69
2021/11/16 05:30:56;;;;;;;96.40;38.23;;;4.50;99.90;;;;;;5074325;29;20540;-70
2021/11/16 05:33:30;;;;;;;90.67;37.30;;;4.50;99.90;;;;;;5074893;29;20194;-73
2021/11/16 05:36:02;;;;;;;91.97;37.40;;;4.50;99.90;;;;;;5091120;29;20210;-72
2021/11/16 05:38:37;;;;;;;96.10;37.67;;;4.50;99.90;;;;;;5074537;29;20540;-70
2021/11/16 05:41:10;;;;;;;93.17;38.37;;;4.50;99.90;;;;;;5091232;29;20244;-67
2021/11/16 05:43:44;;;;;;;89.87;38.77;;;4.50;99.90;;;;;;5091176;29;20187;-68
2021/11/16 05:46:21;;;;;;;91.60;38.97;;;4.50;99.90;;;;;;5074785;29;20701;-67
2021/11/16 05:48:54;;;;;;;96.73;38.67;;;4.50;99.90;;;;;;5091081;29;20574;-68
2021/11/16 05:51:31;;;;;;;83.07;35.70;;;4.50;99.90;;;;;;5090630;29;20245;-67
2021/11/16 05:54:05;;;;;;;85.90;36.57;;;4.50;99.90;;;;;;5075053;29;20312;-69
2021/11/16 05:56:38;;;;;;;89.20;36.80;;;4.50;99.90;;;;;;5074301;29;20244;-67
2021/11/16 05:59:11;;;;;;;85.43;36.17;;;4.50;99.90;;;;;;5074051;29;20218;-68
2021/11/16 06:01:42;;;;;;;82.73;37.33;;;4.50;99.90;;;;;;5091050;29;20268;-69
2021/11/16 06:04:15;;;;;;;86.87;37.33;;;4.50;99.90;;;;;;5074337;29;20211;-69
2021/11/16 06:06:49;;;;;;;84.63;36.13;;;4.50;99.90;;;;;;5059324;29;20245;-69
2021/11/16 06:09:21;;;;;;;89.50;37.00;;;4.50;99.90;;;;;;5074472;29;20191;-67
2021/11/16 06:11:57;;;;;;;89.70;37.50;;;4.60;99.90;;;;;;5090362;29;20230;-66
2021/11/16 06:14:29;;;;;;;88.37;38.70;;;4.50;99.90;;;;;;5084701;29;20225;-69
2021/11/16 06:17:02;;;;;;;94.10;38.30;;;4.50;99.90;;;;;;5088405;29;20210;-66
2021/11/16 06:19:37;;;;;;;83.03;35.63;;;4.50;99.90;;;;;;5073861;29;20224;-67
2021/11/16 06:22:10;;;;;;;84.97;36.80;;;4.60;99.90;;;;;;5087366;29;20213;-67
2021/11/16 06:24:42;;;;;;;83.37;35.97;;;4.60;99.90;;;;;;5088275;29;20229;-70
2021/11/16 06:27:14;;;;;;;93.57;39.53;;;4.60;99.90;;;;;;5087907;29;20247;-70
2021/11/16 06:29:46;;;;;;;88.93;39.93;;;4.60;99.90;;;;;;5073087;29;20209;-64
2021/11/16 06:32:18;;;;;;;85.13;36.07;;;4.60;99.90;;;;;;5089265;29;20639;-68
2021/11/16 06:34:51;;;;;;;83.37;36.77;;;4.50;99.90;;;;;;5090296;29;20217;-70
2021/11/16 06:37:26;;;;;;;82.00;35.00;;;4.60;99.90;;;;;;5089983;29;20210;-71
2021/11/16 06:39:58;;;;;;;86.90;37.17;;;4.60;99.90;;;;;;5088240;29;20220;-68
2021/11/16 06:42:33;;;;;;;85.13;37.03;;;4.60;99.90;;;;;;5088406;29;20206;-70
2021/11/16 06:45:05;;;;;;;91.40;34.07;;;4.60;99.90;;;;;;5071128;29;20217;-70
2021/11/16 06:47:38;;;;;;;89.17;36.07;;;4.60;99.90;;;;;;5088076;29;20226;-71
2021/11/16 06:50:10;;;;;;;83.60;33.80;;;4.60;99.90;;;;;;5088204;29;20221;-70
2021/11/16 06:52:43;;;;;;;81.63;33.80;;;4.60;99.90;;;;;;5088051;29;20358;-69
2021/11/16 06:55:15;;;;;;;86.33;35.10;;;4.60;99.90;;;;;;5072857;29;20776;-71
2021/11/16 06:57:50;;;;;;;87.77;36.70;;;4.60;99.90;;;;;;5089446;29;20217;-67
2021/11/16 07:00:22;;;;;;;92.67;35.03;;;4.60;99.90;;;;;;5072617;29;20213;-67
2021/11/16 07:02:57;;;;;;;89.67;34.67;;;4.60;99.90;;;;;;5072983;29;20225;-69
2021/11/16 07:05:33;;;;;;;83.20;34.03;;;4.70;99.90;;;;;;5089274;29;20224;-68
2021/11/16 07:08:05;;;;;;;94.50;38.03;;;4.70;99.90;;;;;;5072748;29;20222;-66
2021/11/16 07:10:38;;;;;;;97.10;37.10;;;4.70;99.90;;;;;;5088579;29;20225;-65
2021/11/16 07:13:10;;;;;;;95.00;39.23;;;4.70;99.90;;;;;;5088574;29;20206;-66
2021/11/16 07:15:45;;;;;;;89.67;38.60;;;4.70;99.90;;;;;;5072589;29;20209;-66
2021/11/16 07:18:17;;;;;;;88.43;37.43;;;4.70;99.90;;;;;;5072899;29;20220;-66
2021/11/16 07:21:00;;;;;;;86.47;37.80;;;4.70;99.90;;;;;;5088900;29;20311;-66
2021/11/16 07:23:32;;;;;;;85.20;38.43;;;4.70;99.90;;;;;;5088871;29;20214;-66
2021/11/16 07:26:13;;;;;;;88.20;38.20;;;4.70;99.90;;;;;;5072300;29;20210;-67
2021/11/16 07:28:49;;;;;;;91.67;36.23;;;4.70;99.90;;;;;;5088833;29;20226;-65
2021/11/16 07:31:22;;;;;;;77.57;35.03;;;4.70;99.90;;;;;;5088689;29;20213;-67
2021/11/16 07:34:06;;;;;;;93.70;37.87;;;4.70;99.90;;;;;;5089334;29;20643;-65
2021/11/16 07:36:38;;;;;;;96.77;38.90;;;4.70;99.90;;;;;;5088721;29;20611;-66
2021/11/16 07:39:15;;;;;;;89.70;38.70;;;4.70;99.90;;;;;;5088420;29;20237;-68
2021/11/16 07:41:49;;;;;;;94.60;39.23;;;4.70;99.90;;;;;;5072077;29;20256;-67
2021/11/16 07:44:21;;;;;;;83.93;37.03;;;4.70;99.90;;;;;;5072796;29;20209;-67
2021/11/16 07:46:55;;;;;;;88.03;37.60;;;4.70;99.90;;;;;;5072271;29;20234;-69
2021/11/16 07:49:28;;;;;;;87.90;37.90;;;4.70;99.90;;;;;;5088987;29;20221;-67
2021/11/16 07:52:03;;;;;;;87.47;38.27;;;4.70;99.90;;;;;;5087472;29;20237;-66
2021/11/16 07:54:35;;;;;;;87.20;37.83;;;4.70;99.90;;;;;;5088658;29;20347;-66
2021/11/16 07:57:14;;;;;;;86.83;37.03;;;4.70;99.90;;;;;;5088307;29;20240;-69
2021/11/16 07:59:46;;;;;;;84.30;37.40;;;4.70;99.90;;;;;;5071658;29;20225;-67
2021/11/16 08:02:32;;;;;;;86.90;38.83;;;4.80;99.90;;;;;;5072100;29;20238;-67
2021/11/16 08:05:31;;;;;;;78.80;36.10;;;4.80;99.90;;;;;;5072080;29;20528;-65
2021/11/16 08:08:27;;;;;;;88.87;37.37;;;4.80;99.90;;;;;;5071148;29;20238;-66
2021/11/16 08:11:13;;;;;;;84.60;36.67;;;4.80;99.90;;;;;;5071025;29;20623;-68
2021/11/16 08:14:12;;;;;;;82.30;38.50;;;4.80;99.90;;;;;;5068891;29;20188;-68
2021/11/16 08:16:58;;;;;;;82.93;36.07;;;4.90;99.90;;;;;;5052104;29;20569;-67
2021/11/16 08:19:36;;;;;;;90.70;38.47;;;4.80;99.90;;;;;;5068972;29;20211;-63
2021/11/16 08:22:12;;;;;;;83.37;35.60;;;4.80;99.90;;;;;;5068861;29;20226;-65
2021/11/16 08:24:46;;;;;;;86.80;37.17;;;4.80;99.90;;;;;;5053422;29;20202;-67
2021/11/16 08:27:24;;;;;;;81.50;36.73;;;4.80;99.90;;;;;;5068730;29;20238;-69
2021/11/16 08:30:22;;;;;;;83.70;37.00;;;4.90;99.90;;;;;;5071061;29;20214;-66
2021/11/16 08:32:57;;;;;;;81.70;34.67;;;4.80;99.90;;;;;;5086934;29;20222;-66
2021/11/16 08:35:31;;;;;;;80.00;35.00;;;4.90;99.90;;;;;;5086911;29;20210;-68
2021/11/16 08:38:05;;;;;;;85.93;36.03;;;4.80;99.90;;;;;;5087711;29;20238;-67
2021/11/16 08:40:39;;;;;;;75.20;32.80;;;4.90;99.90;;;;;;5087825;29;20217;-69
2021/11/16 08:43:16;;;;;;;82.97;35.87;;;4.90;99.90;;;;;;5087946;29;20240;-67
2021/11/16 08:45:49;;;;;;;86.23;35.90;;;4.90;99.90;;;;;;5087905;29;20206;-67
2021/11/16 08:48:24;;;;;;;73.63;34.63;;;4.90;99.90;;;;;;5070794;29;20344;-64
2021/11/16 08:50:59;;;;;;;83.30;36.73;;;4.90;99.90;;;;;;5087789;29;20257;-69
2021/11/16 08:53:37;;;;;;;78.13;33.47;;;4.90;99.90;;;;;;5071247;29;20276;-66
2021/11/16 08:56:15;;;;;;;73.07;33.20;;;4.90;99.90;;;;;;5088313;29;20214;-68
2021/11/16 08:59:12;;;;;;;73.60;32.73;;;4.90;99.90;;;;;;5073461;29;20297;-72
2021/11/16 09:02:01;;;;;;;75.77;32.53;;;4.90;99.90;;;;;;5087218;29;20201;-67
2021/11/16 09:04:37;;;;;;;80.93;32.80;;;4.90;99.90;;;;;;5072138;29;20300;-71
2021/11/16 09:07:28;;;;;;;75.97;32.67;;;5.00;99.90;;;;;;5092073;29;20241;-69
2021/11/16 09:10:08;;;;;;;79.20;33.03;;;4.90;99.90;;;;;;5075960;29;20317;-69
2021/11/16 09:12:44;;;;;;;74.43;32.33;;;5.00;99.90;;;;;;5075386;29;20237;-67
2021/11/16 09:15:29;;;;;;;74.13;32.87;;;5.00;99.90;;;;;;5089211;29;20225;-70
2021/11/16 09:18:36;;;;;;;76.60;31.43;;;5.00;99.90;;;;;;5075060;29;20225;-69
2021/11/16 09:21:10;;;;;;;78.07;32.00;;;5.00;99.90;;;;;;5091378;29;20210;-68
2021/11/16 09:24:04;;;;;;;76.27;32.87;;;5.00;99.90;;;;;;5091429;29;20551;-68
2021/11/16 09:29:21;;;;;;;75.30;32.67;;;5.00;99.90;;;;;;5090866;29;20570;-69
2021/11/16 09:32:14;;;;;;;75.47;33.13;;;5.00;99.90;;;;;;5091499;29;20221;-65
2021/11/16 09:34:51;;;;;;;76.33;31.33;;;5.00;99.90;;;;;;5090960;29;20237;-70
2021/11/16 09:37:24;;;;;;;74.40;31.57;;;5.00;99.90;;;;;;5091456;29;20217;-69
2021/11/16 09:40:00;;;;;;;73.13;32.27;;;5.00;99.90;;;;;;5090902;29;20274;-66
2021/11/16 09:42:36;;;;;;;75.67;32.23;;;5.00;99.90;;;;;;5091423;29;20500;-71
2021/11/16 09:45:25;;;;;;;73.60;32.07;;;5.00;99.90;;;;;;5073027;29;20237;-70
2021/11/16 09:48:01;;;;;;;69.57;31.37;;;5.00;99.90;;;;;;5074816;29;20229;-67
2021/11/16 09:50:38;;;;;;;75.23;30.80;;;5.00;99.90;;;;;;5091238;29;20555;-68
2021/11/16 09:53:16;;;;;;;74.53;32.80;;;5.00;99.90;;;;;;5070435;29;20305;-71
2021/11/16 09:55:48;;;;;;;70.00;31.47;;;5.00;99.90;;;;;;5070638;29;20218;-68
2021/11/16 09:58:24;;;;;;;68.20;31.67;;;5.00;99.90;;;;;;5039877;29;20211;-68
2021/11/16 10:00:56;;;;;;;71.83;31.03;;;5.00;99.90;;;;;;5071267;29;20230;-66
2021/11/16 10:03:28;;;;;;;75.30;32.77;;;5.00;99.90;;;;;;5055355;29;20222;-66
2021/11/16 10:06:00;;;;;;;71.87;33.30;;;5.00;99.90;;;;;;5054440;29;20215;-68
2021/11/16 10:08:32;;;;;;;75.13;31.43;;;5.00;99.90;;;;;;5071187;29;20211;-68
2021/11/16 10:11:04;;;;;;;71.83;31.77;;;5.00;99.90;;;;;;5071031;29;20206;-66
2021/11/16 10:13:36;;;;;;;61.13;24.87;;;5.00;99.90;;;;;;5039741;29;20226;-70
2021/11/16 10:16:09;;;;;;;71.60;31.73;;;5.00;99.90;;;;;;5071650;29;20262;-67
2021/11/16 10:18:42;;;;;;;67.13;30.80;;;5.00;99.90;;;;;;5071457;29;20238;-67
2021/11/16 10:21:18;;;;;;;68.77;31.37;;;5.00;99.90;;;;;;5071213;29;20223;-66
2021/11/16 10:23:55;;;;;;;68.90;31.07;;;5.00;99.90;;;;;;5052898;29;20691;-69
2021/11/16 10:26:32;;;;;;;70.10;30.50;;;5.00;99.90;;;;;;5070586;29;20324;-69
2021/11/16 10:29:16;;;;;;;73.33;31.97;;;5.00;99.90;;;;;;5070516;29;20574;-65
2021/11/16 10:31:48;;;;;;;67.13;30.37;;;5.00;99.90;;;;;;5070776;29;20209;-70
2021/11/16 10:34:37;;;;;;;67.90;28.50;;;5.10;99.90;;;;;;5070704;29;20220;-68
2021/11/16 10:37:09;;;;;;;65.63;28.90;;;5.10;99.90;;;;;;5071013;29;20213;-67
2021/11/16 10:39:41;;;;;;;70.77;31.33;;;5.10;99.90;;;;;;5070483;29;20322;-68
2021/11/16 10:42:17;;;;;;;66.60;29.13;;;5.10;99.90;;;;;;5069444;29;20211;-68
2021/11/16 10:44:59;;;;;;;62.50;29.07;;;5.10;99.90;;;;;;5070213;29;20587;-69
2021/11/16 10:47:35;;;;;;;65.20;29.10;;;5.10;99.90;;;;;;5070502;29;20253;-66
2021/11/16 10:50:15;;;;;;;65.53;29.37;;;5.10;99.90;;;;;;5068942;29;20301;-68
2021/11/16 10:53:05;;;;;;;60.17;27.37;;;5.10;99.90;;;;;;5087317;29;20242;-67
2021/11/16 10:55:40;;;;;;;59.43;27.47;;;5.10;99.90;;;;;;5090159;29;20206;-67
2021/11/16 10:58:18;;;;;;;53.47;25.00;;;5.10;99.90;;;;;;5072847;29;20224;-67
2021/11/16 11:01:05;;;;;;;62.20;26.97;;;5.10;99.90;;;;;;5073335;29;20218;-67
2021/11/16 11:03:45;;;;;;;58.77;25.60;;;5.10;99.90;;;;;;5072825;29;20224;-67
2021/11/16 11:06:20;;;;;;;58.10;26.17;;;5.20;99.90;;;;;;5089815;29;20237;-68
2021/11/16 11:09:04;;;;;;;58.53;25.77;;;5.10;99.90;;;;;;5072853;29;20218;-69
2021/11/16 11:11:48;;;;;;;54.57;25.37;;;5.20;99.90;;;;;;5089557;29;20201;-69
2021/11/16 11:14:25;;;;;;;55.77;25.90;;;5.20;99.90;;;;;;5089219;29;20241;-67
2021/11/16 11:17:09;;;;;;;59.70;26.33;;;5.20;99.90;;;;;;5073138;29;20202;-66
2021/11/16 11:19:42;;;;;;;52.57;24.70;;;5.20;99.90;;;;;;5072879;29;20238;-71
2021/11/16 11:25:03;;;;;;;53.60;25.23;;;5.20;99.90;;;;;;5072911;29;20245;-67
2021/11/16 11:27:43;;;;;;;55.60;24.30;;;5.20;99.90;;;;;;5088371;29;20245;-64
2021/11/16 11:30:17;;;;;;;51.13;23.67;;;5.20;99.90;;;;;;5088956;29;20245;-65
2021/11/16 11:32:54;;;;;;;51.87;23.37;;;5.20;99.90;;;;;;5089261;29;20222;-69
2021/11/16 11:35:28;;;;;;;49.07;23.07;;;5.30;99.90;;;;;;5089178;29;20238;-68
2021/11/16 11:38:12;;;;;;;46.90;19.43;;;5.20;99.90;;;;;;5073079;29;20492;-68
2021/11/16 11:40:44;;;;;;;52.57;19.40;;;5.30;99.90;;;;;;5088728;29;20316;-65
2021/11/16 11:43:21;;;;;;;48.60;20.10;;;5.30;99.90;;;;;;5072143;29;20643;-70
2021/11/16 11:45:52;;;;;;;47.03;22.47;;;5.30;99.90;;;;;;5087358;29;20206;-73
2021/11/16 11:48:27;;;;;;;51.17;24.33;;;5.20;99.90;;;;;;5072594;29;20667;-70
2021/11/16 11:51:10;;;;;;;49.87;23.93;;;5.30;99.90;;;;;;5088534;29;20250;-70
2021/11/16 11:53:42;;;;;;;58.43;24.13;;;5.30;99.90;;;;;;5088815;29;20190;-73
2021/11/16 11:56:15;;;;;;;59.60;25.13;;;5.30;99.90;;;;;;5089298;29;20332;-72
2021/11/16 11:58:47;;;;;;;54.43;24.77;;;5.30;99.90;;;;;;5088721;29;20213;-73
2021/11/16 12:01:28;;;;;;;53.20;23.87;;;5.30;99.90;;;;;;5071624;29;20217;-72
2021/11/16 12:04:00;;;;;;;58.40;25.63;;;5.30;99.90;;;;;;5072966;29;20210;-72
2021/11/16 12:06:33;;;;;;;61.80;24.80;;;5.20;99.90;;;;;;5071679;29;20221;-72
2021/11/16 12:09:09;;;;;;;54.93;24.83;;;5.20;99.90;;;;;;5071940;29;20252;-74
2021/11/16 12:11:43;;;;;;;55.47;24.10;;;5.10;99.90;;;;;;5088013;29;20237;-71
2021/11/16 12:14:25;;;;;;;57.63;24.50;;;5.10;99.90;;;;;;5087851;29;20206;-71
2021/11/16 12:17:02;;;;;;;52.37;23.73;;;5.10;99.90;;;;;;5087979;29;20236;-73
2021/11/16 12:19:53;;;;;;;56.07;24.33;;;5.10;99.90;;;;;;5088489;29;20493;-73
2021/11/16 12:22:29;;;;;;;53.63;22.40;;;5.10;99.90;;;;;;5088050;29;20225;-71
2021/11/16 12:25:22;;;;;;;52.93;22.80;;;5.10;99.90;;;;;;5071514;29;20202;-71
2021/11/16 12:27:54;;;;;;;50.97;20.73;;;5.10;99.90;;;;;;5072040;29;20238;-71
2021/11/16 12:30:47;;;;;;;53.33;22.57;;;5.10;99.90;;;;;;5072294;29;20210;-71
2021/11/16 12:33:48;;;;;;;47.30;21.53;;;5.10;99.90;;;;;;5090211;29;20265;-70
2021/11/16 12:36:29;;;;;;;44.83;21.33;;;5.20;99.90;;;;;;5076484;29;20194;-69
2021/11/16 12:39:23;;;;;;;51.10;22.00;;;5.20;99.90;;;;;;5090899;29;20320;-73
2021/11/16 12:42:09;;;;;;;47.83;20.77;;;5.20;99.90;;;;;;5073806;29;20230;-73
2021/11/16 12:44:45;;;;;;;45.10;20.50;;;5.20;99.90;;;;;;5088187;29;20488;-72
2021/11/16 12:47:17;;;;;;;46.50;21.37;;;5.20;99.90;;;;;;5068547;29;20207;-70
2021/11/16 12:49:50;;;;;;;51.67;23.03;;;5.20;99.90;;;;;;5052062;29;20334;-72
2021/11/16 12:52:23;;;;;;;52.33;22.67;;;5.20;99.90;;;;;;5067826;29;20256;-72
2021/11/16 12:55:14;;;;;;;54.13;23.57;;;5.20;99.90;;;;;;5068390;29;20258;-69
2021/11/16 12:57:48;;;;;;;52.40;23.47;;;5.20;99.90;;;;;;5068306;29;20286;-72
2021/11/16 13:00:46;;;;;;;44.80;20.10;;;5.20;99.90;;;;;;5068235;29;20265;-70
2021/11/16 13:03:50;;;;;;;46.27;21.77;;;5.20;99.90;;;;;;5050333;29;20217;-69
2021/11/16 13:06:22;;;;;;;56.33;22.70;;;5.20;99.90;;;;;;5072044;29;20201;-69
2021/11/16 13:08:56;;;;;;;53.67;22.80;;;5.10;99.90;;;;;;5070723;29;20230;-75
2021/11/16 13:11:51;;;;;;;55.43;21.87;;;5.10;99.90;;;;;;5087624;29;20615;-71
2021/11/16 13:14:38;;;;;;;52.37;22.27;;;5.10;99.90;;;;;;5071327;29;20205;-69
2021/11/16 13:17:51;;;;;;;54.67;23.07;;;5.10;99.90;;;;;;5071207;29;20528;-72
2021/11/16 13:20:43;;;;;;;48.70;21.07;;;5.10;99.90;;;;;;5087687;29;20632;-72
2021/11/16 13:23:31;;;;;;;53.90;22.67;;;5.00;99.90;;;;;;5087699;29;20217;-67
2021/11/16 13:26:08;;;;;;;49.40;22.23;;;5.00;99.90;;;;;;5070530;29;20234;-69
2021/11/16 13:31:33;;;;;;;54.10;23.43;;;5.10;99.90;;;;;;5087500;29;20230;-73
2021/11/16 13:34:12;;;;;;;60.90;24.43;;;5.00;99.90;;;;;;5087574;29;20490;-70
2021/11/16 13:36:52;;;;;;;56.10;23.93;;;5.00;99.90;;;;;;5071683;29;20253;-69
2021/11/16 13:39:36;;;;;;;56.97;23.23;;;5.00;99.90;;;;;;5069157;29;20624;-70
2021/11/16 13:42:20;;;;;;;47.17;21.87;;;5.00;99.90;;;;;;5055800;29;20298;-70
2021/11/16 13:45:04;;;;;;;53.20;22.83;;;5.00;99.90;;;;;;5074137;29;20195;-73